地図

経路データ

SID SEASON NUMBER BASIN SUBBASIN NAME ISO_TIME NATURE LAT LON WMO_WIND WMO_PRES WMO_AGENCY TRACK_TYPE DIST2LAND LANDFALL IFLAG USA_AGENCY USA_ATCF_ID USA_LAT USA_LON USA_RECORD USA_STATUS USA_WIND USA_PRES USA_SSHS USA_R34_NE USA_R34_SE USA_R34_SW USA_R34_NW USA_R50_NE USA_R50_SE USA_R50_SW USA_R50_NW USA_R64_NE USA_R64_SE USA_R64_SW USA_R64_NW USA_POCI USA_ROCI USA_RMW USA_EYE TOKYO_LAT TOKYO_LON TOKYO_GRADE TOKYO_WIND TOKYO_PRES TOKYO_R50_DIR TOKYO_R50_LONG TOKYO_R50_SHORT TOKYO_R30_DIR TOKYO_R30_LONG TOKYO_R30_SHORT TOKYO_LAND CMA_LAT CMA_LON CMA_CAT CMA_WIND CMA_PRES HKO_LAT HKO_LON HKO_CAT HKO_WIND HKO_PRES NEWDELHI_LAT NEWDELHI_LON NEWDELHI_GRADE NEWDELHI_WIND NEWDELHI_PRES NEWDELHI_CI NEWDELHI_DP NEWDELHI_POCI REUNION_LAT REUNION_LON REUNION_TYPE REUNION_WIND REUNION_PRES REUNION_TNUM REUNION_CI REUNION_RMW REUNION_R34_NE REUNION_R34_SE REUNION_R34_SW REUNION_R34_NW REUNION_R50_NE REUNION_R50_SE REUNION_R50_SW REUNION_R50_NW REUNION_R64_NE REUNION_R64_SE REUNION_R64_SW REUNION_R64_NW BOM_LAT BOM_LON BOM_TYPE BOM_WIND BOM_PRES BOM_TNUM BOM_CI BOM_RMW BOM_R34_NE BOM_R34_SE BOM_R34_SW BOM_R34_NW BOM_R50_NE BOM_R50_SE BOM_R50_SW BOM_R50_NW BOM_R64_NE BOM_R64_SE BOM_R64_SW BOM_R64_NW BOM_ROCI BOM_POCI BOM_EYE BOM_POS_METHOD BOM_PRES_METHOD NADI_LAT NADI_LON NADI_CAT NADI_WIND NADI_PRES WELLINGTON_LAT WELLINGTON_LON WELLINGTON_WIND WELLINGTON_PRES DS824_LAT DS824_LON DS824_STAGE DS824_WIND DS824_PRES TD9636_LAT TD9636_LON TD9636_STAGE TD9636_WIND TD9636_PRES TD9635_LAT TD9635_LON TD9635_WIND TD9635_PRES TD9635_ROCI NEUMANN_LAT NEUMANN_LON NEUMANN_CLASS NEUMANN_WIND NEUMANN_PRES MLC_LAT MLC_LON MLC_CLASS MLC_WIND MLC_PRES USA_GUST BOM_GUST BOM_GUST_PER REUNION_GUST REUNION_GUST_PER USA_SEAHGT USA_SEARAD_NE USA_SEARAD_SE USA_SEARAD_SW USA_SEARAD_NW STORM_SPEED STORM_DIR
2000055S23227 2000 12 SP MM KIM 2000-02-23 12:00:00 TS -23.1000 -132.800 20 1005 nadi main 4270 4241 O_______O___O_ jtwc_sh SH132000 -23.2000 -132.800 TD 20 -1 -23.0000 -132.800 20 1005 -23.0000 -132.800 20 1005 -23.2000 -132.800 TC 20 6 257
2000055S23227 2000 12 SP MM KIM 2000-02-23 15:00:00 TS -23.1675 -133.131 main 4241 4200 P______IP___P_ SH132000 -23.2001 -133.183 TD 22 -1 -23.1350 -133.080 20 1004 -23.1350 -133.080 20 1004 -23.2001 -133.183 TC 22 7 261
2000055S23227 2000 12 SP MM KIM 2000-02-23 18:00:00 TS -23.2000 -133.500 20 1003 nadi main 4200 4159 O_______O___O_ jtwc_sh SH132000 -23.2000 -133.600 TD 25 -1 -23.2000 -133.400 20 1003 -23.2000 -133.400 20 1003 -23.2000 -133.600 TC 25 7 269
2000055S23227 2000 12 SP MM KIM 2000-02-23 21:00:00 TS -23.1789 -133.919 main 4159 4119 P______IP___P_ SH132000 -23.2001 -134.065 TD 27 -1 -23.1576 -133.773 22 1001 -23.1576 -133.773 22 1001 -23.2001 -134.065 TC 27 7 274
2000055S23227 2000 12 SP MM KIM 2000-02-24 00:00:00 TS -23.1500 -134.300 25 1000 nadi main 4117 4099 O_______O___O_ jtwc_sh SH132000 -23.2000 -134.500 TD 30 -1 -23.1000 -134.100 25 1000 -23.1000 -134.100 25 1000 -23.2000 -134.500 TC 30 6 271
2000055S23227 2000 12 SP MM KIM 2000-02-24 03:00:00 TS -23.1673 -134.547 main 4099 4079 P______IP___P_ SH132000 -23.1999 -134.845 TD 30 -1 -23.1347 -134.250 25 999 -23.1347 -134.250 25 999 -23.1999 -134.845 TC 30 4 263
2000055S23227 2000 12 SP MM KIM 2000-02-24 06:00:00 TS -23.2000 -134.750 25 999 nadi main 4079 4048 O_______O___O_ jtwc_sh SH132000 -23.2000 -135.100 TD 30 -1 -23.2000 -134.400 25 999 -23.2000 -134.400 25 999 -23.2000 -135.100 TC 30 4 261
2000055S23227 2000 12 SP MM KIM 2000-02-24 09:00:00 TS -23.2325 -135.004 main 4048 4028 P______IP___P_ SH132000 -23.1999 -135.273 TD 32 -1 -23.2652 -134.735 27 998 -23.2652 -134.735 27 998 -23.1999 -135.273 TC 32 5 264
2000055S23227 2000 12 SP MM KIM 2000-02-24 12:00:00 TS -23.2500 -135.250 30 997 nadi main 4028 3998 O_______O___O_ jtwc_sh SH132000 -23.2000 -135.400 TS 35 0 -23.3000 -135.100 30 997 -23.3000 -135.100 30 997 -23.2000 -135.400 TC 35 4 271
2000055S23227 2000 12 SP MM KIM 2000-02-24 15:00:00 TS -23.2287 -135.461 main 3998 3988 P______IP___P_ SH132000 -23.2000 -135.550 TS 40 0 -23.2574 -135.373 32 995 -23.2574 -135.373 32 995 -23.2000 -135.550 TC 40 4 278
2000055S23227 2000 12 SP MM KIM 2000-02-24 18:00:00 TS -23.2000 -135.650 35 994 nadi main 3988 3967 O_______O___O_ jtwc_sh SH132000 -23.2000 -135.700 TS 45 0 -23.2000 -135.600 35 994 -23.2000 -135.600 35 994 -23.2000 -135.700 TC 45 3 277
2000055S23227 2000 12 SP MM KIM 2000-02-24 21:00:00 TS -23.1887 -135.825 main 3967 3947 P______IP___P_ SH132000 -23.1925 -135.843 TS 45 0 -23.1849 -135.807 42 989 -23.1849 -135.807 42 989 -23.1925 -135.843 TC 45 3 270
2000055S23227 2000 12 SP MM KIM 2000-02-25 00:00:00 TS -23.2000 -136.000 50 985 nadi main 3947 3927 O_______O___O_ jtwc_sh SH132000 -23.2000 -136.000 TS 45 0 -23.2000 -136.000 50 985 -23.2000 -136.000 50 985 -23.2000 -136.000 TC 45 3 262
2000055S23227 2000 12 SP MM KIM 2000-02-25 03:00:00 TS -23.2349 -136.181 main 3927 3909 P______IP___P_ SH132000 -23.2349 -136.178 TS 50 0 -23.2349 -136.185 55 980 -23.2349 -136.185 55 980 -23.2349 -136.178 TC 50 4 255
2000055S23227 2000 12 SP MM KIM 2000-02-25 06:00:00 TS -23.3000 -136.400 60 975 nadi main 3909 3880 O_______O___O_ jtwc_sh SH132000 -23.3000 -136.400 TS 55 0 -23.3000 -136.400 60 975 -23.3000 -136.400 60 975 -23.3000 -136.400 TC 55 5 255
2000055S23227 2000 12 SP MM KIM 2000-02-25 09:00:00 TS -23.3625 -136.689 main 3880 3852 P______IP___P_ SH132000 -23.3550 -136.685 TS 57 0 -23.3701 -136.693 65 970 -23.3701 -136.693 65 970 -23.3550 -136.685 TC 57 6 250
2000055S23227 2000 12 SP MM KIM 2000-02-25 12:00:00 TS -23.5000 -137.000 70 965 nadi main 3852 3836 O_______O___O_ jtwc_sh SH132000 -23.5000 -137.000 TS 60 0 -23.5000 -137.000 70 965 -23.5000 -137.000 70 965 -23.5000 -137.000 TC 60 7 231
2000055S23227 2000 12 SP MM KIM 2000-02-25 15:00:00 TS -23.7885 -137.252 main 3828 3812 P______IP___P_ SH132000 -23.8423 -137.277 TS 62 0 -23.7347 -137.228 72 962 -23.7347 -137.228 72 962 -23.8423 -137.277 TC 62 8 220
2000055S23227 2000 12 SP MM KIM 2000-02-25 18:00:00 TS -24.1000 -137.550 75 960 nadi main 3804 3769 O_______O___O_ jtwc_sh SH132000 -24.2000 -137.600 TY 65 1 -24.0000 -137.500 75 960 -24.0000 -137.500 75 960 -24.2000 -137.600 TC 65 8 233
2000055S23227 2000 12 SP MM KIM 2000-02-25 21:00:00 TS -24.2939 -137.981 main 3769 3732 P______IP___P_ SH132000 -24.3877 -138.043 TY 82 1 -24.2001 -137.920 77 957 -24.2001 -137.920 77 957 -24.3877 -138.043 TC 82 9 247
2000055S23227 2000 12 SP MM KIM 2000-02-26 00:00:00 TS -24.4500 -138.450 80 955 nadi main 3732 3697 O_______O___O_ jtwc_sh SH132000 -24.5000 -138.500 TY 100 3 -24.4000 -138.400 80 955 -24.4000 -138.400 80 955 -24.5000 -138.500 TC 100 9 250
2000055S23227 2000 12 SP MM KIM 2000-02-26 03:00:00 TS -24.5949 -138.869 main 3687 3660 P______IP___P_ SH132000 -24.5698 -138.865 TY 100 3 -24.6200 -138.873 85 947 -24.6200 -138.873 85 947 -24.5698 -138.865 TC 100 8 244
2000055S23227 2000 12 SP MM KIM 2000-02-26 06:00:00 TS -24.8000 -139.250 90 940 nadi main 3663 3639 O_______O___O_ jtwc_sh SH132000 -24.7000 -139.200 TY 100 3 -24.9000 -139.300 90 940 -24.9000 -139.300 90 940 -24.7000 -139.200 TC 100 8 229
2000055S23227 2000 12 SP MM KIM 2000-02-26 09:00:00 TS -25.1296 -139.557 main 3631 3613 P______IP___P_ SH132000 -24.9822 -139.521 TY 97 3 -25.2771 -139.593 90 937 -25.2771 -139.593 90 937 -24.9822 -139.521 TC 97 10 218
2000055S23227 2000 12 SP MM KIM 2000-02-26 12:00:00 TS -25.5500 -139.900 90 935 wellington main 3613 3580 O_______O___O_ jtwc_sh SH132000 -25.4000 -139.900 TY 95 2 -25.7000 -139.900 90 935 -25.7000 -139.900 90 935 -25.4000 -139.900 TC 95 12 221
2000055S23227 2000 12 SP MM KIM 2000-02-26 15:00:00 TS -26.0215 -140.406 main 3580 3545 P______IP___P_ SH132000 -25.9352 -140.427 TY 85 2 -26.1077 -140.385 90 937 -26.1077 -140.385 90 937 -25.9352 -140.427 TC 85 13 225
2000055S23227 2000 12 SP MM KIM 2000-02-26 18:00:00 TS -26.5000 -140.950 90 940 wellington main 3549 3515 O_______O___O_ jtwc_sh SH132000 -26.5000 -141.000 TY 75 1 -26.5000 -140.900 90 940 -26.5000 -140.900 90 940 -26.5000 -141.000 TC 75 13 225
2000055S23227 2000 12 SP MM KIM 2000-02-26 21:00:00 TS -26.9185 -141.415 main 3515 3488 P______IP___P_ SH132000 -26.9874 -141.523 TY 75 1 -26.8497 -141.308 87 942 -26.8497 -141.308 87 942 -26.9874 -141.523 TC 75 11 225
2000055S23227 2000 12 SP MM KIM 2000-02-27 00:00:00 TS -27.3000 -141.850 85 945 wellington main 3483 3466 O_______O___O_ jtwc_sh SH132000 -27.4000 -142.000 TY 75 1 -27.2000 -141.700 85 945 -27.2000 -141.700 85 945 -27.4000 -142.000 TC 75 10 226
2000055S23227 2000 12 SP MM KIM 2000-02-27 03:00:00 TS -27.6458 -142.257 main 3457 3436 P______IP___P_ SH132000 -27.7147 -142.408 TY 75 1 -27.5770 -142.106 82 950 -27.5770 -142.106 82 950 -27.7147 -142.408 TC 75 10 227
2000055S23227 2000 12 SP MM KIM 2000-02-27 06:00:00 TS -28.0000 -142.700 80 955 wellington main 3436 3407 O_______O___O_ jtwc_sh SH132000 -28.0000 -142.800 TY 75 1 -28.0000 -142.600 80 955 -28.0000 -142.600 80 955 -28.0000 -142.800 TC 75 12 228
2000055S23227 2000 12 SP MM KIM 2000-02-27 09:00:00 TS -28.4401 -143.256 main 3398 3371 P______IP___P_ SH132000 -28.3494 -143.198 TY 72 1 -28.5308 -143.314 75 960 -28.5308 -143.314 75 960 -28.3494 -143.198 TC 72 13 230
2000055S23227 2000 12 SP MM KIM 2000-02-27 12:00:00 TS -28.8400 -143.840 70 965 wellington main 3371 3332 O_______O___O_ jtwc_sh SH132000 -28.7000 -143.700 TY 70 1 -29.0000 -144.000 70 965 -29.0000 -144.000 70 965 -28.7000 -143.700 TC 70 12 237
2000055S23227 2000 12 SP MM KIM 2000-02-27 15:00:00 TS -29.0948 -144.401 main 3332 3289 P______IP___P_ SH132000 -28.9931 -144.428 TY 67 1 -29.2644 -144.434 65 970 -29.2135 -144.330 65 970 -28.9931 -144.428 TC 67 11 244
2000055S23227 2000 12 SP MM KIM 2000-02-27 18:00:00 TS -29.3385 -145.008 60 975 wellington main 3289 3248 O_______O___O_ jtwc_sh SH132000 -29.3000 -145.200 TY 65 1 -29.4000 -144.700 60 975 -29.4000 -144.700 60 975 -29.3000 -145.200 TC 65 13 241
2000055S23227 2000 12 SP MM KIM 2000-02-27 21:00:00 TS -29.7333 -145.714 main 3248 3210 P_______P___P_ SH132000 -29.6768 -145.816 TY 57 0 -29.8463 -145.510 57 977 -29.6768 -145.816 TC 57 14 237
2000055S23227 2000 12 SP MM KIM 2000-02-28 00:00:00 TS -30.1333 -146.400 55 980 wellington main 3210 3171 O_______O___O_ jtwc_sh SH132000 -30.1000 -146.400 TS 50 0 -30.2000 -146.400 55 980 -30.1000 -146.400 TC 50 13 241
2000055S23227 2000 12 SP MM KIM 2000-02-28 03:00:00 TS -30.3848 -147.057 main 3168 3138 P_______P___P_ SH132000 -30.5577 -147.072 TS 42 0 -30.0389 -147.027 52 981 -30.5577 -147.072 TC 42 12 244
2000055S23227 2000 12 SP MM KIM 2000-02-28 06:00:00 TS -30.6667 -147.667 50 983 wellington main 3136 3109 O_______O___O_ jtwc_sh SH132000 -31.0000 -147.700 TS 35 0 -30.0000 -147.600 50 983 -31.0000 -147.700 TC 35 13 234
2000055S23227 2000 12 SP MM KIM 2000-02-28 09:00:00 TS -31.1442 -148.252 main 3100 3044 P_______P___P_ SH132000 -31.3571 -148.196 TS 35 0 -30.7184 -148.363 50 984 -31.3571 -148.196 TC 35 14 222
2000055S23227 2000 12 SP MM KIM 2000-02-28 12:00:00 TS -31.6667 -148.733 50 985 wellington main 3040 2997 O_______O___O_ jtwc_sh SH132000 -31.7000 -148.600 TS 35 0 -31.6000 -149.000 50 985 -31.7000 -148.600 TC 35 12 216
2000055S23227 2000 12 SP MM KIM 2000-02-28 15:00:00 TS -32.1030 -149.063 main 2989 2955 P_______P___P_ SH132000 -32.0999 -148.980 TS 35 0 -32.1092 -149.227 50 985 -32.0999 -148.980 TC 35 10 210
2000055S23227 2000 12 SP MM KIM 2000-02-28 18:00:00 TS -32.5000 -149.300 50 985 wellington main 2955 2926 O_______O___O_ jtwc_sh SH132000 -32.5000 -149.300 TS 35 0 -32.5000 -149.300 50 985 -32.5000 -149.300 TC 35 8 207
2000055S23227 2000 12 SP MM KIM 2000-02-28 21:00:00 TS -32.8539 -149.519 main 2922 2885 P_______P___P_ SH132000 -32.8272 -149.551 TS 35 0 -32.9072 -149.456 47 986 -32.8272 -149.551 TC 35 8 208
2000055S23227 2000 12 SP MM KIM 2000-02-29 00:00:00 TS -33.2333 -149.767 45 987 wellington main 2885 2841 O_______O___O_ jtwc_sh SH132000 -33.2000 -149.800 TS 35 0 -33.3000 -149.700 45 987 -33.2000 -149.800 TC 35 10 210
2000055S23227 2000 12 SP MM KIM 2000-02-29 03:00:00 TS -33.7258 -150.112 main 2841 2789 P_______P___P_ SH132000 -33.7348 -150.113 TS 32 -1 -33.7077 -150.112 42 988 -33.7348 -150.113 TC 32 12 213
2000055S23227 2000 12 SP MM KIM 2000-02-29 06:00:00 TS -34.2333 -150.533 40 990 wellington main 2789 2729 O_______O___O_ jtwc_sh SH132000 -34.3000 -150.500 TD 30 -1 -34.1000 -150.600 40 990 -34.3000 -150.500 TC 30 12 218
2000055S23227 2000 12 SP MM KIM 2000-02-29 09:00:00 TS -34.6826 -151.014 main 2729 2676 P_______P___P_ SH132000 -34.7952 -150.992 TD 30 -1 -34.4574 -151.058 40 992 -34.7952 -150.992 TC 30 12 224
2000055S23227 2000 12 SP MM KIM 2000-02-29 12:00:00 TS -35.0667 -151.500 40 994 wellington main 2673 2632 O_______O___O_ jtwc_sh SH132000 -35.2000 -151.500 TD 30 -1 -34.8000 -151.500 40 994 -35.2000 -151.500 TC 30 10 228
2000055S23227 2000 12 SP MM KIM 2000-02-29 15:00:00 TS -35.3574 -151.933 main 2630 2589 P_______P___P_ SH132000 -35.4648 -151.931 TD 30 -1 -35.1425 -151.938 40 994 -35.4648 -151.931 TC 30 9 230
2000055S23227 2000 12 SP MM KIM 2000-02-29 18:00:00 TS -35.6200 -152.300 40 994 wellington main 2589 2555 O_______O___O_ jtwc_sh SH132000 -35.7000 -152.300 TD 30 -1 -35.5000 -152.300 40 994 -35.7000 -152.300 TC 30 8 221
2000055S23227 2000 12 SP MM KIM 2000-02-29 21:00:00 TS -35.9600 -152.576 main 2552 2528 P_______P___P_ SH132000 -36.0201 -152.614 TD 27 -1 -35.8998 -152.538 40 995 -36.0201 -152.614 TC 27 8 208
2000055S23227 2000 12 SP MM KIM 2000-03-01 00:00:00 TS -36.3333 -152.767 40 996 wellington main 2528 2512 O_______O___O_ jtwc_sh SH132000 -36.4000 -152.900 TD 25 -1 -36.3000 -152.700 40 996 -36.4000 -152.900 TC 25 7 198
2000055S23227 2000 12 SP MM KIM 2000-03-01 03:00:00 NR -36.6649 -152.858 main 2510 2495 ________P_____ SH132000 TD -1 -36.6649 -152.858 40 998 TC 7 196
2000055S23227 2000 12 SP MM KIM 2000-03-01 06:00:00 NR -37.0000 -153.000 40 1000 wellington main 2495 2480 ________O_____ -37.0000 -153.000 40 1000 7 200
2000055S23227 2000 12 SP MM KIM 2000-03-01 09:00:00 NR -37.3075 -153.150 main 2472 2457 ________P_____ -37.3075 -153.150 40 1001 6 202
2000055S23227 2000 12 SP MM KIM 2000-03-01 12:00:00 NR -37.6000 -153.300 40 1002 wellington main 2457 2411 ________O_____ -37.6000 -153.300 40 1002 7 226
2000055S23227 2000 12 SP MM KIM 2000-03-01 15:00:00 NR -37.8106 -153.814 main 2411 2399 ________P_____ -37.8106 -153.814 40 1003 6 202
2000055S23227 2000 12 SP MM KIM 2000-03-01 18:00:00 NR -38.2000 -153.600 40 1004 wellington main 2422 2422 ________O_____ -38.2000 -153.600 40 1004 21 125
2000055S23227 2000 12 SP MM KIM 2000-03-01 21:00:00 NR -39.0212 -151.653 main 2575 2575 ________P_____ -39.0212 -151.653 37 1006 40 115
2000055S23227 2000 12 SP MM KIM 2000-03-02 00:00:00 NR -39.9000 -148.900 35 1008 wellington main 2803 2803 ________O_____ -39.9000 -148.900 35 1008 43 109
2000055S23227 2000 12 SP MM KIM 2000-03-02 03:00:00 NR -40.4309 -146.313 main 3017 3017 ________P_____ -40.4309 -146.313 35 1008 39 106
2000055S23227 2000 12 SP MM KIM 2000-03-02 06:00:00 NR -41.0000 -144.000 35 1008 wellington main 3200 3200 ________O_____ -41.0000 -144.000 35 1008 33 116
2000055S23227 2000 12 SP MM KIM 2000-03-02 09:00:00 NR -41.8914 -142.408 main 3319 3319 ________P_____ -41.8914 -142.408 35 1009 30 132
2000055S23227 2000 12 SP MM KIM 2000-03-02 12:00:00 NR -43.0000 -141.000 35 1010 wellington main 3419 3308 ________O_____ -43.0000 -141.000 35 1010 33 135
2000055S23227 2000 12 SP MM KIM 2000-03-02 15:00:00 NR -44.1889 -139.224 main 3296 3155 ________P_____ -44.1889 -139.224 35 1010 36 131
2000055S23227 2000 12 SP MM KIM 2000-03-02 18:00:00 NR -45.4000 -137.200 35 1010 wellington main 3143 3015 ________O_____ -45.4000 -137.200 35 1010 38 128
2000055S23227 2000 12 SP MM KIM 2000-03-02 21:00:00 NR -46.5009 -134.937 main 3002 2887 ________P_____ -46.5009 -134.937 30 1011 38 123
2000055S23227 2000 12 SP MM KIM 2000-03-03 00:00:00 NR -47.5000 -132.500 25 1013 wellington main 2875 ________O_____ -47.5000 -132.500 25 1013 39 121

デジタル台風データ・検索

IBTrACS Databaseについて

本データベースは、米国NOAAが公開する1842年以降の世界の熱帯低気圧のベストトラックデータアーカイブInternational Best Track Archive for Climate Stewardship (IBTrACS)を、ウェブで閲覧しやすい形式に変換したものです。

最終更新日:2021-12-03